Time;durP1;ratioP1;P1;durP2;ratioP2;P2;SDS_P1;SDS_P2;PMS_P1;PMS_P2;Temp;Humidity;BMP_temperature;BMP_pressure;BME280_temperature;BME280_humidity;BME280_pressure;Samples;Min_cycle;Max_cycle;Signal;HPM_P1;HPM_P2
2023/05/30 00:01:23;;;;;;;30.20;26.20;;;;;;;12.68;100.00;99060.80;109393;1253;58212;-77
2023/05/30 00:03:50;;;;;;;33.60;25.80;;;;;;;12.69;100.00;99061.44;109450;1253;58158;-77
2023/05/30 00:06:17;;;;;;;37.50;27.20;;;;;;;12.69;100.00;99059.81;109467;1253;65157;-78
2023/05/30 00:08:44;;;;;;;32.90;27.30;;;;;;;12.67;100.00;99061.02;109441;1253;60299;-77
2023/05/30 00:11:14;;;;;;;36.40;27.90;;;;;;;12.67;100.00;99058.61;109054;1253;63733;-77
2023/05/30 00:13:44;;;;;;;35.10;27.80;;;;;;;12.65;100.00;99055.20;109461;1253;58198;-77
2023/05/30 00:16:12;;;;;;;38.90;30.40;;;;;;;12.63;100.00;99054.23;109478;1253;58059;-77
2023/05/30 00:18:39;;;;;;;38.40;31.50;;;;;;;12.63;100.00;99056.91;109470;1253;66442;-77
2023/05/30 00:21:07;;;;;;;41.20;30.00;;;;;;;12.63;100.00;99058.32;109445;1258;60152;-77
2023/05/30 00:23:35;;;;;;;37.00;29.60;;;;;;;12.63;100.00;99061.53;109464;1253;64093;-77
2023/05/30 00:26:03;;;;;;;38.60;30.30;;;;;;;12.62;100.00;99061.42;109201;1253;58529;-78
2023/05/30 00:28:30;;;;;;;33.00;28.60;;;;;;;12.61;100.00;99055.66;109438;1253;58237;-77
2023/05/30 00:30:57;;;;;;;39.10;27.60;;;;;;;12.59;100.00;99056.84;109217;1253;65300;-77
2023/05/30 00:33:23;;;;;;;38.10;28.80;;;;;;;12.56;100.00;99056.00;109052;1253;60052;-77
2023/05/30 00:35:50;;;;;;;36.00;29.00;;;;;;;12.53;100.00;99056.78;109409;1253;65205;-77
2023/05/30 00:38:17;;;;;;;34.80;28.20;;;;;;;12.48;100.00;99057.80;109412;1253;58103;-77
2023/05/30 00:40:44;;;;;;;38.00;28.20;;;;;;;12.46;100.00;99058.16;109272;1253;58198;-77
2023/05/30 00:43:11;;;;;;;32.40;28.30;;;;;;;12.43;100.00;99055.04;109444;1253;65200;-77
2023/05/30 00:45:38;;;;;;;36.20;30.00;;;;;;;12.38;100.00;99054.27;109017;1253;60305;-77
2023/05/30 00:48:05;;;;;;;37.10;30.40;;;;;;;12.33;100.00;99057.00;109448;1253;62758;-77
2023/05/30 00:50:33;;;;;;;38.90;28.70;;;;;;;12.27;100.00;99057.77;109443;1253;58148;-77
2023/05/30 00:53:00;;;;;;;36.50;29.70;;;;;;;12.24;100.00;99055.84;109435;1253;58452;-78
2023/05/30 00:55:27;;;;;;;38.90;30.00;;;;;;;12.22;100.00;99054.37;109411;1253;65823;-77
2023/05/30 00:57:54;;;;;;;37.90;30.30;;;;;;;12.20;100.00;99055.25;109426;1253;59950;-77
2023/05/30 01:00:24;;;;;;;34.70;27.70;;;;;;;12.16;100.00;99060.19;108987;1253;64795;-77
2023/05/30 01:02:51;;;;;;;32.70;27.20;;;;;;;12.10;100.00;99060.42;109419;1253;58499;-77
2023/05/30 01:05:19;;;;;;;31.70;28.10;;;;;;;12.04;100.00;99059.77;109407;1254;58094;-76
2023/05/30 01:07:45;;;;;;;34.70;27.10;;;;;;;12.02;100.00;99061.03;109432;1253;65326;-76
2023/05/30 01:10:16;;;;;;;35.10;26.90;;;;;;;11.99;100.00;99062.09;109438;1253;59921;-76
2023/05/30 01:12:45;;;;;;;36.70;27.20;;;;;;;11.98;100.00;99067.20;109427;1253;65250;-76
2023/05/30 01:15:22;;;;;;;31.30;26.20;;;;;;;11.95;100.00;99068.27;109415;1254;58214;-76
2023/05/30 01:18:11;;;;;;;35.70;27.00;;;;;;;11.91;100.00;99067.84;109443;1253;58623;-77
2023/05/30 01:20:45;;;;;;;36.70;26.40;;;;;;;11.89;100.00;99069.09;109427;1253;65416;-76
2023/05/30 01:23:47;;;;;;;37.90;28.50;;;;;;;11.87;100.00;99069.58;109453;1253;60390;-76
2023/05/30 01:26:52;;;;;;;37.40;29.00;;;;;;;11.86;100.00;99068.00;108807;1261;64293;-76
2023/05/30 01:29:23;;;;;;;39.30;31.00;;;;;;;11.88;100.00;99071.64;108093;1268;58298;-76
2023/05/30 01:31:50;;;;;;;44.90;33.30;;;;;;;11.89;100.00;99074.45;108365;1268;58247;-77
2023/05/30 01:34:17;;;;;;;45.20;35.50;;;;;;;11.88;100.00;99073.27;108358;1268;66266;-77
2023/05/30 01:36:43;;;;;;;48.60;37.10;;;;;;;11.88;100.00;99075.05;108329;1268;61123;-79
2023/05/30 01:39:10;;;;;;;44.10;34.90;;;;;;;11.88;100.00;99072.71;108372;1268;62477;-78
2023/05/30 01:41:48;;;;;;;49.20;36.20;;;;;;;11.90;100.00;99067.25;108322;1272;58481;-78
2023/05/30 01:44:28;;;;;;;41.90;33.10;;;;;;;11.92;100.00;99066.70;108365;1268;58447;-77
2023/05/30 01:47:17;;;;;;;41.40;33.40;;;;;;;11.94;100.00;99063.57;108365;1268;66331;-76
2023/05/30 01:50:05;;;;;;;41.20;32.60;;;;;;;11.94;100.00;99059.59;108351;1268;60167;-78
2023/05/30 01:52:36;;;;;;;44.60;32.60;;;;;;;11.93;100.00;99056.48;108350;1268;63991;-78
2023/05/30 01:55:07;;;;;;;46.20;32.90;;;;;;;11.92;100.00;99059.59;108343;1268;58578;-76
2023/05/30 01:57:39;;;;;;;44.80;32.50;;;;;;;11.90;100.00;99061.87;108088;1268;58279;-77
2023/05/30 02:00:34;;;;;;;43.00;32.80;;;;;;;11.86;100.00;99067.96;108340;1268;65201;-77
2023/05/30 02:03:01;;;;;;;41.10;31.80;;;;;;;11.85;100.00;99070.52;108591;1253;60100;-77
2023/05/30 02:05:27;;;;;;;41.50;33.00;;;;;;;11.85;100.00;99069.80;109409;1253;64889;-77
2023/05/30 02:07:54;;;;;;;41.30;33.70;;;;;;;11.86;100.00;99068.73;109430;1253;58263;-78
2023/05/30 02:10:21;;;;;;;40.60;30.80;;;;;;;11.87;100.00;99068.66;109428;1253;58204;-77
2023/05/30 02:12:47;;;;;;;40.50;30.00;;;;;;;11.86;100.00;99067.45;109443;1253;63797;-78
2023/05/30 02:15:14;;;;;;;42.00;29.60;;;;;;;11.86;100.00;99063.74;109062;1254;61227;-78
2023/05/30 02:17:41;;;;;;;39.60;29.50;;;;;;;11.85;100.00;99063.61;109400;1256;65066;-77
2023/05/30 02:20:09;;;;;;;41.40;29.70;;;;;;;11.85;100.00;99060.05;109445;1253;58569;-78
2023/05/30 02:22:36;;;;;;;39.10;30.00;;;;;;;11.82;100.00;99059.20;109381;1254;58304;-77
2023/05/30 02:25:03;;;;;;;36.60;27.30;;;;;;;11.77;100.00;99058.84;109418;1254;66358;-77
2023/05/30 02:27:30;;;;;;;37.70;30.50;;;;;;;11.74;100.00;99059.04;109411;1254;61142;-77
2023/05/30 02:29:57;;;;;;;40.30;31.90;;;;;;;11.73;100.00;99060.70;109410;1254;65062;-78
2023/05/30 02:32:24;;;;;;;45.70;31.70;;;;;;;11.74;100.00;99063.19;109408;1253;58177;-77
2023/05/30 02:34:50;;;;;;;42.00;30.70;;;;;;;11.74;100.00;99063.33;109421;1255;58046;-78
2023/05/30 02:37:17;;;;;;;50.70;33.20;;;;;;;11.74;100.00;99062.23;109375;1254;65337;-76
2023/05/30 02:39:44;;;;;;;42.50;31.20;;;;;;;11.73;100.00;99063.39;109408;1253;59270;-77
2023/05/30 02:42:10;;;;;;;44.10;29.60;;;;;;;11.73;100.00;99064.83;109133;1253;64317;-77
2023/05/30 02:44:38;;;;;;;40.30;28.90;;;;;;;11.72;100.00;99064.70;109411;1254;58413;-77
2023/05/30 02:47:05;;;;;;;31.70;24.10;;;;;;;11.72;100.00;99068.24;109403;1253;58371;-77
2023/05/30 02:49:31;;;;;;;28.70;22.60;;;;;;;11.73;100.00;99071.25;109402;1254;66299;-78
2023/05/30 02:51:58;;;;;;;29.50;23.10;;;;;;;11.73;100.00;99077.61;109445;1254;61304;-77
2023/05/30 02:54:24;;;;;;;30.70;20.80;;;;;;;11.72;100.00;99078.39;109386;1254;64285;-77
2023/05/30 02:56:51;;;;;;;28.40;20.10;;;;;;;11.72;100.00;99084.84;109367;1257;58314;-78
2023/05/30 02:59:18;;;;;;;30.30;20.50;;;;;;;11.72;100.00;99087.16;109434;1254;58368;-77
2023/05/30 03:01:44;;;;;;;31.10;22.00;;;;;;;11.74;100.00;99082.94;109025;1254;64944;-78
2023/05/30 03:04:12;;;;;;;30.00;21.80;;;;;;;11.77;100.00;99085.20;109392;1253;60225;-78
2023/05/30 03:06:38;;;;;;;29.20;20.70;;;;;;;11.81;100.00;99088.45;109379;1254;65302;-77
2023/05/30 03:09:05;;;;;;;28.00;21.80;;;;;;;11.81;100.00;99090.60;109000;1254;58238;-78
2023/05/30 03:11:32;;;;;;;29.10;22.50;;;;;;;11.82;100.00;99092.31;109370;1254;58287;-78
2023/05/30 03:13:58;;;;;;;34.30;24.00;;;;;;;11.85;100.00;99098.16;109415;1257;65270;-78
2023/05/30 03:16:26;;;;;;;32.60;22.10;;;;;;;11.88;100.00;99102.05;109378;1254;60022;-78
2023/05/30 03:18:53;;;;;;;30.00;22.10;;;;;;;11.92;100.00;99102.67;109379;1253;63906;-78
2023/05/30 03:21:22;;;;;;;30.90;21.80;;;;;;;11.95;100.00;99103.33;108970;1254;58173;-78
2023/05/30 03:23:51;;;;;;;29.10;20.50;;;;;;;12.00;100.00;99105.46;109018;1254;58344;-77
2023/05/30 03:26:18;;;;;;;30.70;21.20;;;;;;;12.04;100.00;99108.42;109430;1253;66330;-78
2023/05/30 03:28:44;;;;;;;28.40;21.60;;;;;;;12.09;100.00;99108.61;109449;1254;60043;-78
2023/05/30 03:31:12;;;;;;;26.50;19.80;;;;;;;12.12;100.00;99110.88;109015;1254;62788;-78
2023/05/30 03:33:39;;;;;;;24.80;17.80;;;;;;;12.15;100.00;99110.11;109364;1254;58252;-78
2023/05/30 03:36:06;;;;;;;22.10;16.70;;;;;;;12.20;100.00;99111.57;109408;1254;58221;-78
2023/05/30 03:38:33;;;;;;;23.70;18.10;;;;;;;12.25;100.00;99108.88;109037;1254;65285;-78
2023/05/30 03:41:00;;;;;;;23.40;16.80;;;;;;;12.32;100.00;99113.20;109399;1254;58982;-78
2023/05/30 03:43:27;;;;;;;22.50;17.50;;;;;;;12.39;100.00;99112.13;109376;1254;65305;-78
2023/05/30 03:45:53;;;;;;;22.70;18.10;;;;;;;12.47;100.00;99114.76;109101;1254;58213;-78
2023/05/30 03:48:20;;;;;;;20.50;17.20;;;;;;;12.54;100.00;99116.56;109427;1254;58146;-78
2023/05/30 03:50:46;;;;;;;20.10;16.50;;;;;;;12.58;100.00;99116.96;109367;1254;64041;-77
2023/05/30 03:53:13;;;;;;;23.40;18.90;;;;;;;12.64;100.00;99118.16;109410;1254;58896;-77
2023/05/30 03:55:40;;;;;;;20.60;16.90;;;;;;;12.69;100.00;99120.11;109398;1254;64233;-78
2023/05/30 03:58:06;;;;;;;23.80;16.50;;;;;;;12.75;100.00;99119.85;109387;1254;58165;-77
2023/05/30 04:00:33;;;;;;;21.40;16.40;;;;;;;12.81;100.00;99118.85;109416;1254;58232;-78
2023/05/30 04:03:00;;;;;;;19.70;16.50;;;;;;;12.86;100.00;99120.45;109374;1254;65283;-78
2023/05/30 04:05:27;;;;;;;20.80;15.90;;;;;;;12.91;100.00;99122.40;109418;1254;58558;-77
2023/05/30 04:07:53;;;;;;;24.00;17.80;;;;;;;12.98;100.00;99127.43;109036;1254;65194;-78
2023/05/30 04:10:20;;;;;;;22.20;17.30;;;;;;;13.04;100.00;99126.06;109373;1254;58281;-78
2023/05/30 04:12:47;;;;;;;25.70;17.10;;;;;;;13.11;100.00;99127.16;109418;1254;58173;-77
2023/05/30 04:15:13;;;;;;;27.40;17.90;;;;;;;13.19;100.00;99132.09;109380;1254;65393;-77
2023/05/30 04:17:40;;;;;;;24.20;17.70;;;;;;;13.26;100.00;99132.44;109380;1254;59710;-78
2023/05/30 04:20:12;;;;;;;30.50;16.70;;;;;;;13.34;100.00;99134.66;109382;1254;65136;-77
2023/05/30 04:22:38;;;;;;;35.20;19.50;;;;;;;13.42;100.00;99135.02;109371;1254;58124;-78
2023/05/30 04:25:06;;;;;;;39.60;21.50;;;;;;;13.50;100.00;99133.67;109357;1254;58371;-78
2023/05/30 04:27:34;;;;;;;39.10;22.00;;;;;;;13.60;100.00;99137.20;109380;1254;66385;-78
2023/05/30 04:30:03;;;;;;;41.00;23.00;;;;;;;13.69;100.00;99136.13;109408;1254;59977;-78
2023/05/30 04:32:33;;;;;;;32.50;20.90;;;;;;;13.80;100.00;99135.83;109379;1254;64932;-76
2023/05/30 04:35:01;;;;;;;;;;;;;;;13.93;100.00;99136.08;109377;1254;58233;-79
2023/05/30 04:37:27;;;;;;;26.90;18.40;;;;;;;14.05;100.00;99138.35;109410;1254;58313;-77
2023/05/30 04:39:56;;;;;;;24.30;18.30;;;;;;;14.16;100.00;99137.45;109359;1254;65271;-78
2023/05/30 04:42:26;;;;;;;24.40;17.90;;;;;;;14.30;100.00;99135.76;109382;1254;60180;-78
2023/05/30 04:44:54;;;;;;;20.30;15.30;;;;;;;14.46;100.00;99134.37;109354;1254;65111;-78
2023/05/30 04:47:24;;;;;;;20.70;15.80;;;;;;;14.59;100.00;99139.59;109199;1253;58234;-77
2023/05/30 04:49:53;;;;;;;18.70;14.40;;;;;;;14.71;100.00;99151.61;109429;1254;58312;-77
2023/05/30 04:52:20;;;;;;;18.80;14.30;;;;;;;14.84;100.00;99150.95;109394;1254;66408;-78
2023/05/30 04:54:47;;;;;;;18.30;14.90;;;;;;;15.05;100.00;99140.81;109424;1254;58789;-78
2023/05/30 04:57:14;;;;;;;17.80;14.30;;;;;;;15.37;100.00;99137.98;109371;1253;64172;-78
2023/05/30 04:59:40;;;;;;;16.70;14.10;;;;;;;15.67;100.00;99143.98;109151;1254;58605;-78
2023/05/30 05:02:09;;;;;;;19.00;12.50;;;;;;;15.88;100.00;99150.08;109234;1254;58213;-77
2023/05/30 05:04:36;;;;;;;17.20;13.40;;;;;;;16.01;100.00;99148.46;109429;1253;65332;-78
2023/05/30 05:07:03;;;;;;;17.10;14.10;;;;;;;16.29;100.00;99143.47;109442;1253;61142;-77
2023/05/30 05:09:30;;;;;;;17.20;13.20;;;;;;;16.80;100.00;99142.50;109387;1253;64133;-77
2023/05/30 05:11:56;;;;;;;21.30;13.70;;;;;;;17.20;99.77;99151.27;109142;1254;58610;-78
2023/05/30 05:14:23;;;;;;;18.40;13.70;;;;;;;17.24;97.93;99159.95;109407;1253;58132;-77
2023/05/30 05:16:50;;;;;;;17.70;13.70;;;;;;;17.06;97.33;99158.42;109402;1253;66198;-78
2023/05/30 05:19:16;;;;;;;19.20;13.30;;;;;;;17.03;98.77;99157.33;109068;1254;58879;-77
2023/05/30 05:21:43;;;;;;;18.50;12.80;;;;;;;17.09;97.53;99160.02;109331;1253;65331;-78
2023/05/30 05:24:10;;;;;;;16.60;11.50;;;;;;;17.03;95.07;99168.65;109327;1253;58429;-77
2023/05/30 05:26:36;;;;;;;16.90;11.80;;;;;;;16.88;94.63;99172.31;109376;1253;58198;-77
2023/05/30 05:29:03;;;;;;;16.30;11.80;;;;;;;16.84;94.44;99172.53;109382;1253;65167;-77
2023/05/30 05:31:32;;;;;;;17.30;11.80;;;;;;;16.85;92.38;99176.21;109408;1253;61156;-77
2023/05/30 05:33:59;;;;;;;20.50;11.40;;;;;;;16.78;91.18;99185.58;109371;1253;62866;-77
2023/05/30 05:36:26;;;;;;;16.20;11.90;;;;;;;16.77;90.29;99189.30;109370;1253;58257;-77
2023/05/30 05:38:52;;;;;;;20.70;13.00;;;;;;;16.75;89.90;99188.33;109370;1253;58263;-78
2023/05/30 05:41:19;;;;;;;16.60;11.40;;;;;;;16.79;90.15;99187.08;109372;1253;63992;-78
2023/05/30 05:43:46;;;;;;;17.70;10.70;;;;;;;16.89;89.87;99184.29;109362;1253;60212;-78
2023/05/30 05:46:12;;;;;;;16.80;10.40;;;;;;;16.96;88.27;99184.37;109359;1253;64082;-77
2023/05/30 05:48:39;;;;;;;12.40;9.90;;;;;;;17.04;87.96;99186.37;109389;1253;58157;-78
2023/05/30 05:51:05;;;;;;;13.70;9.80;;;;;;;17.11;87.24;99189.25;109370;1253;58265;-76
2023/05/30 05:53:32;;;;;;;15.00;9.30;;;;;;;17.20;86.71;99193.12;109372;1253;65291;-77
2023/05/30 05:56:00;;;;;;;15.70;9.30;;;;;;;17.30;86.65;99195.09;109386;1253;59833;-76
2023/05/30 05:58:27;;;;;;;14.50;9.00;;;;;;;17.44;86.65;99197.36;109106;1253;65074;-77
2023/05/30 06:00:53;;;;;;;15.30;10.20;;;;;;;17.70;85.82;99198.42;109412;1253;58192;-76
2023/05/30 06:03:20;;;;;;;14.80;9.60;;;;;;;17.79;85.35;99200.30;109146;1253;58162;-76
2023/05/30 06:05:47;;;;;;;14.80;9.90;;;;;;;17.86;85.10;99203.89;109099;1253;65627;-78
2023/05/30 06:08:13;;;;;;;14.60;8.70;;;;;;;17.96;83.50;99201.89;109378;1253;60113;-77
2023/05/30 06:10:40;;;;;;;15.20;9.10;;;;;;;17.98;82.38;99207.61;109370;1253;64123;-77
2023/05/30 06:13:07;;;;;;;14.10;8.00;;;;;;;18.04;82.60;99208.32;109366;1253;58302;-78
2023/05/30 06:15:34;;;;;;;15.10;9.80;;;;;;;18.10;81.93;99211.69;109353;1253;58153;-77
2023/05/30 06:18:00;;;;;;;14.20;9.30;;;;;;;18.12;80.59;99213.92;109392;1253;66309;-77
2023/05/30 06:20:27;;;;;;;13.50;9.90;;;;;;;18.14;80.42;99214.06;109349;1253;58627;-78
2023/05/30 06:22:53;;;;;;;14.20;8.70;;;;;;;18.26;79.92;99218.17;109378;1253;62816;-78
2023/05/30 06:25:20;;;;;;;14.20;9.50;;;;;;;18.39;79.22;99219.73;109402;1253;58326;-78
2023/05/30 06:27:48;;;;;;;14.40;8.90;;;;;;;18.55;78.60;99221.52;109382;1253;58255;-77
2023/05/30 06:30:15;;;;;;;13.70;9.20;;;;;;;18.70;77.87;99220.44;109375;1253;66300;-77
2023/05/30 06:32:42;;;;;;;14.00;9.40;;;;;;;18.86;77.39;99218.83;109372;1253;60168;-77
2023/05/30 06:35:09;;;;;;;19.40;9.40;;;;;;;19.01;76.48;99224.91;109386;1253;65359;-77
2023/05/30 06:37:36;;;;;;;15.90;10.10;;;;;;;19.09;75.67;99223.61;109379;1253;58122;-78
2023/05/30 06:40:04;;;;;;;11.40;8.70;;;;;;;19.10;75.01;99225.48;109280;1253;151460;-77
2023/05/30 06:42:32;;;;;;;12.00;9.50;;;;;;;19.11;74.83;99223.94;109015;1253;65142;-77
2023/05/30 06:44:58;;;;;;;14.80;9.30;;;;;;;19.20;74.56;99223.29;109377;1253;60316;-78
2023/05/30 06:47:25;;;;;;;18.80;10.10;;;;;;;19.23;73.06;99224.89;109389;1253;64735;-77
2023/05/30 06:49:52;;;;;;;20.30;10.60;;;;;;;19.22;72.22;99228.77;109375;1253;58593;-78
2023/05/30 06:52:18;;;;;;;18.30;10.10;;;;;;;19.24;72.29;99227.16;109391;1253;58448;-77
2023/05/30 06:54:46;;;;;;;18.70;10.40;;;;;;;19.31;71.69;99228.52;109387;1253;65013;-78
2023/05/30 06:57:12;;;;;;;16.90;8.90;;;;;;;19.34;71.45;99230.89;109397;1253;58848;-78
2023/05/30 06:59:39;;;;;;;12.40;9.00;;;;;;;19.43;70.88;99232.86;109093;1253;64124;-77
2023/05/30 07:02:05;;;;;;;12.50;9.30;;;;;;;19.47;69.57;99233.38;109338;1253;58241;-77
2023/05/30 07:04:32;;;;;;;14.70;9.80;;;;;;;19.55;69.30;99229.70;109415;1253;58245;-78
2023/05/30 07:06:59;;;;;;;14.50;8.80;;;;;;;19.77;68.69;99227.42;109438;1253;65300;-78
2023/05/30 07:09:26;;;;;;;13.20;8.30;;;;;;;20.08;68.09;99231.37;109405;1253;61066;-78
2023/05/30 07:11:53;;;;;;;13.70;7.60;;;;;;;20.45;66.79;99234.40;109367;1253;64586;-77
2023/05/30 07:14:20;;;;;;;13.70;7.60;;;;;;;20.75;65.66;99235.80;109335;1253;58236;-77
2023/05/30 07:16:46;;;;;;;11.00;7.10;;;;;;;21.00;64.97;99238.18;109138;1253;58176;-78
2023/05/30 07:19:13;;;;;;;14.10;8.70;;;;;;;21.47;64.46;99236.42;109406;1253;65433;-78
2023/05/30 07:21:40;;;;;;;12.90;7.60;;;;;;;22.18;64.24;99232.95;109386;1253;61235;-78
2023/05/30 07:24:06;;;;;;;12.70;7.60;;;;;;;22.79;63.43;99232.91;109340;1253;64157;-79
2023/05/30 07:26:34;;;;;;;9.10;6.80;;;;;;;23.19;62.03;99232.97;109343;1253;58243;-77
2023/05/30 07:29:01;;;;;;;10.00;6.90;;;;;;;23.48;60.60;99231.99;109418;1253;58204;-77
2023/05/30 07:31:28;;;;;;;12.50;7.50;;;;;;;23.65;59.13;99234.70;109371;1253;65006;-77
2023/05/30 07:33:55;;;;;;;14.90;7.70;;;;;;;23.88;59.45;99235.20;109398;1253;61183;-78
2023/05/30 07:36:21;;;;;;;9.00;6.50;;;;;;;24.23;59.30;99233.23;109126;1253;64308;-78
2023/05/30 07:38:48;;;;;;;11.90;6.90;;;;;;;24.50;57.13;99233.02;109412;1253;58523;-78
2023/05/30 07:41:15;;;;;;;10.20;7.50;;;;;;;24.56;56.19;99230.47;109365;1253;58136;-78
2023/05/30 07:43:42;;;;;;;12.20;6.60;;;;;;;24.72;55.60;99225.46;109362;1253;73052;-77
2023/05/30 07:46:08;;;;;;;12.20;6.50;;;;;;;24.72;54.41;99227.80;109363;1253;59038;-78
2023/05/30 07:48:35;;;;;;;11.40;6.50;;;;;;;24.58;53.92;99229.41;109364;1253;65335;-78
2023/05/30 07:51:01;;;;;;;11.90;6.20;;;;;;;24.36;52.93;99229.84;109341;1253;58243;-78
2023/05/30 07:53:28;;;;;;;8.70;5.30;;;;;;;24.05;52.55;99231.17;109352;1253;58516;-77
2023/05/30 07:55:55;;;;;;;8.20;5.30;;;;;;;23.86;53.06;99231.61;109384;1253;63971;-78
2023/05/30 07:58:22;;;;;;;10.50;5.80;;;;;;;23.71;52.59;99229.22;109082;1253;61342;-78
2023/05/30 08:00:49;;;;;;;10.30;5.30;;;;;;;23.56;52.06;99229.56;109361;1253;64124;-77
2023/05/30 08:03:15;;;;;;;7.60;5.50;;;;;;;23.46;52.50;99232.20;109382;1253;58233;-78
2023/05/30 08:05:42;;;;;;;8.80;5.80;;;;;;;23.49;52.85;99230.35;109397;1253;59112;-77
2023/05/30 08:08:09;;;;;;;13.20;5.60;;;;;;;23.53;52.60;99229.75;109366;1253;65293;-77
2023/05/30 08:10:35;;;;;;;7.90;4.90;;;;;;;23.42;51.82;99231.55;109345;1253;61274;-78
2023/05/30 08:13:02;;;;;;;8.90;5.40;;;;;;;23.32;52.32;99239.90;109340;1253;65292;-78
2023/05/30 08:15:29;;;;;;;8.90;4.90;;;;;;;23.25;51.65;99238.61;109068;1253;58280;-77
2023/05/30 08:17:56;;;;;;;9.70;5.10;;;;;;;23.16;51.82;99233.83;109354;1253;58228;-77
2023/05/30 08:20:24;;;;;;;8.00;5.30;;;;;;;23.25;52.08;99235.02;109362;1253;65205;-78
2023/05/30 08:22:51;;;;;;;10.20;5.30;;;;;;;23.32;51.84;99230.73;109414;1253;60221;-78
2023/05/30 08:25:23;;;;;;;10.70;7.00;;;;;;;23.40;51.38;99229.96;109336;1253;65226;-77
2023/05/30 08:27:53;;;;;;;10.90;5.70;;;;;;;23.48;51.48;99225.98;109355;1253;58195;-76
2023/05/30 08:30:19;;;;;;;10.00;5.90;;;;;;;23.55;50.75;99225.61;109376;1253;58202;-78
2023/05/30 08:32:46;;;;;;;7.60;5.30;;;;;;;23.57;49.45;99227.98;109409;1253;63947;-78
2023/05/30 08:35:13;;;;;;;9.10;4.90;;;;;;;23.54;49.08;99223.27;109399;1253;61119;-78
2023/05/30 08:37:41;;;;;;;6.90;5.30;;;;;;;23.60;49.04;99222.89;109396;1253;64220;-78
2023/05/30 08:40:14;;;;;;;8.50;4.90;;;;;;;23.68;49.10;99225.19;109077;1253;58359;-77
2023/05/30 08:42:41;;;;;;;9.60;4.70;;;;;;;23.81;48.10;99230.83;109374;1253;58268;-78
2023/05/30 08:45:08;;;;;;;9.70;5.50;;;;;;;23.70;45.11;99231.38;109389;1253;66346;-78
2023/05/30 08:47:35;;;;;;;7.90;4.70;;;;;;;23.52;46.04;99229.95;109392;1253;59056;-78
2023/05/30 08:50:04;;;;;;;12.90;5.20;;;;;;;23.68;46.49;99229.89;109389;1253;65226;-80
2023/05/30 08:52:31;;;;;;;8.10;5.20;;;;;;;23.85;46.07;99235.16;109352;1253;58233;-78
2023/05/30 08:55:10;;;;;;;8.70;5.20;;;;;;;24.07;45.74;99233.34;109413;1253;58318;-78
2023/05/30 08:57:48;;;;;;;6.90;5.10;;;;;;;24.18;44.20;99231.48;109385;1253;66228;-78
2023/05/30 09:00:15;;;;;;;7.80;4.80;;;;;;;24.21;43.22;99231.98;109394;1253;60269;-78
2023/05/30 09:02:43;;;;;;;8.30;4.90;;;;;;;24.27;42.41;99229.11;109384;1253;65477;-77
2023/05/30 09:05:14;;;;;;;9.70;5.00;;;;;;;24.18;42.43;99227.70;109371;1253;58162;-77
2023/05/30 09:07:42;;;;;;;10.80;5.00;;;;;;;24.02;42.41;99227.44;109401;1253;58253;-78
2023/05/30 09:10:11;;;;;;;9.30;5.10;;;;;;;23.77;42.85;99228.70;109406;1253;65334;-78
2023/05/30 09:12:37;;;;;;;11.80;5.60;;;;;;;23.75;43.69;99229.84;109052;1253;62206;-77
2023/05/30 09:15:04;;;;;;;10.90;5.70;;;;;;;23.88;42.94;99228.63;109387;1253;63863;-77
2023/05/30 09:17:32;;;;;;;7.30;5.20;;;;;;;23.82;42.65;99227.02;109085;1253;58188;-77
2023/05/30 09:19:59;;;;;;;8.80;5.20;;;;;;;23.94;43.01;99223.15;109361;1253;58291;-77
2023/05/30 09:22:29;;;;;;;9.70;5.50;;;;;;;24.11;43.59;99225.04;109404;1253;66504;-78
2023/05/30 09:25:06;;;;;;;10.60;5.60;;;;;;;24.29;43.38;99225.54;109106;1253;61156;-77
2023/05/30 09:27:35;;;;;;;8.00;4.70;;;;;;;24.40;42.64;99218.21;109047;1253;65154;-77
2023/05/30 09:30:08;;;;;;;9.70;4.90;;;;;;;24.48;41.93;99214.21;109334;1253;58503;-77
2023/05/30 09:32:36;;;;;;;9.10;5.30;;;;;;;24.57;42.02;99212.61;109387;1254;58123;-77
2023/05/30 09:35:06;;;;;;;7.10;5.60;;;;;;;24.66;42.16;99218.73;109355;1253;65037;-78
2023/05/30 09:37:43;;;;;;;;;;;;;;;24.74;41.79;99216.27;109402;1253;60888;-78
2023/05/30 09:40:11;;;;;;;7.50;4.50;;;;;;;24.66;41.67;99213.29;109366;1253;62449;-77
2023/05/30 09:42:44;;;;;;;7.40;5.30;;;;;;;24.67;40.38;99215.32;109372;1253;58226;-77
2023/05/30 09:45:13;;;;;;;7.90;4.60;;;;;;;24.55;40.60;99217.92;109358;1253;58345;-77
2023/05/30 09:47:48;;;;;;;11.70;5.40;;;;;;;24.63;40.96;99216.39;109398;1253;64070;-77
2023/05/30 09:50:23;;;;;;;5.70;4.90;;;;;;;24.57;40.89;99217.11;109392;1253;61375;-78
2023/05/30 09:52:56;;;;;;;11.00;5.30;;;;;;;24.13;40.71;99219.70;109372;1253;62820;-77
2023/05/30 09:55:25;;;;;;;8.50;4.90;;;;;;;23.80;41.67;99226.77;109361;1253;58289;-77
2023/05/30 09:57:52;;;;;;;10.50;5.90;;;;;;;23.67;42.13;99226.02;109398;1253;58552;-77
2023/05/30 10:00:24;;;;;;;8.10;5.70;;;;;;;23.77;42.35;99224.53;109396;1253;66245;-78
2023/05/30 10:02:53;;;;;;;13.40;5.50;;;;;;;23.97;42.72;99219.20;109383;1253;60120;-78
2023/05/30 10:05:22;;;;;;;6.30;5.40;;;;;;;24.03;43.01;99216.52;109094;1253;64066;-78
2023/05/30 10:07:51;;;;;;;8.70;6.00;;;;;;;23.87;42.56;99220.67;109333;1254;58160;-78
2023/05/30 10:10:18;;;;;;;8.90;6.00;;;;;;;23.66;42.27;99221.67;109415;1253;58197;-78
2023/05/30 10:12:50;;;;;;;8.80;5.60;;;;;;;23.58;42.73;99227.70;109365;1253;66482;-77
2023/05/30 10:15:18;;;;;;;6.60;5.20;;;;;;;23.77;42.74;99228.04;109386;1253;60187;-79
2023/05/30 10:17:46;;;;;;;7.20;5.40;;;;;;;24.07;42.93;99222.91;109401;1253;64138;-77
2023/05/30 10:20:15;;;;;;;6.00;5.20;;;;;;;24.34;42.07;99223.86;109431;1253;58220;-78
2023/05/30 10:22:44;;;;;;;9.60;5.50;;;;;;;24.44;41.47;99226.16;109378;1253;58198;-78
2023/05/30 10:25:12;;;;;;;7.70;5.70;;;;;;;24.47;40.96;99225.93;109423;1253;66171;-79
2023/05/30 10:27:47;;;;;;;8.40;5.10;;;;;;;24.52;40.69;99224.08;109373;1253;61353;-78
2023/05/30 10:30:21;;;;;;;9.00;5.20;;;;;;;24.65;41.06;99223.25;109404;1253;62839;-78
2023/05/30 10:33:11;;;;;;;7.80;5.10;;;;;;;24.79;40.42;99225.54;109387;1253;58294;-79
2023/05/30 10:35:38;;;;;;;8.60;5.30;;;;;;;24.92;40.19;99224.63;109411;1253;58417;-78
2023/05/30 10:38:11;;;;;;;8.10;5.10;;;;;;;25.10;39.54;99222.73;109386;1253;65349;-79
2023/05/30 10:41:00;;;;;;;6.10;5.00;;;;;;;25.38;40.09;99215.32;109462;1253;58537;-78
2023/05/30 10:43:40;;;;;;;7.20;4.70;;;;;;;25.80;39.90;99212.91;109418;1253;64824;-78
2023/05/30 10:46:40;;;;;;;7.20;4.30;;;;;;;26.10;39.07;99212.77;109426;1253;58175;-76
2023/05/30 10:49:25;;;;;;;12.10;5.10;;;;;;;26.17;38.23;99212.41;109444;1253;58196;-78
2023/05/30 10:52:00;;;;;;;7.80;5.00;;;;;;;26.07;37.50;99214.09;109429;1253;66532;-77
2023/05/30 10:54:35;;;;;;;9.40;4.50;;;;;;;25.80;37.39;99216.44;109443;1253;59766;-78
2023/05/30 10:57:14;;;;;;;6.80;4.70;;;;;;;25.65;37.57;99213.59;109366;1253;64742;-77
2023/05/30 10:59:40;;;;;;;4.90;4.40;;;;;;;25.75;37.70;99214.52;109405;1253;58185;-77
2023/05/30 11:02:07;;;;;;;6.20;4.40;;;;;;;25.82;37.90;99215.23;109439;1253;58222;-78
2023/05/30 11:04:38;;;;;;;5.90;4.50;;;;;;;25.78;37.65;99219.86;109413;1253;66124;-78
2023/05/30 11:07:06;;;;;;;6.40;4.20;;;;;;;25.82;38.15;99218.81;109473;1253;59866;-79
2023/05/30 11:09:32;;;;;;;7.30;4.40;;;;;;;25.91;37.56;99212.06;109438;1253;65232;-78
2023/05/30 11:12:00;;;;;;;8.90;5.50;;;;;;;25.92;37.17;99211.41;109396;1253;58147;-78
2023/05/30 11:14:32;;;;;;;6.50;4.60;;;;;;;25.93;36.75;99210.74;109392;1253;58240;-78
2023/05/30 11:17:03;;;;;;;6.20;3.90;;;;;;;25.77;36.59;99208.89;109444;1253;65209;-78
2023/05/30 11:19:40;;;;;;;6.60;4.60;;;;;;;25.63;37.03;99205.56;109473;1253;58781;-78